createdAt,value
2022-08-08T00:00:52.902Z,36.83
2022-08-08T00:03:31.758Z,36.58
2022-08-08T00:06:28.378Z,36.67
2022-08-08T00:09:16.154Z,37.25
2022-08-08T00:12:13.142Z,37.44
2022-08-08T00:15:03.343Z,37.36
2022-08-08T00:17:58.558Z,37.61
2022-08-08T00:20:49.915Z,38.02
2022-08-08T00:23:42.699Z,38.14
2022-08-08T00:26:26.039Z,38.20
2022-08-08T00:29:08.058Z,38.61
2022-08-08T00:32:14.885Z,37.80
2022-08-08T00:35:20.030Z,37.74
2022-08-08T00:38:32.318Z,37.70
2022-08-08T00:41:54.482Z,37.69
2022-08-08T00:44:56.394Z,38.10
2022-08-08T00:48:04.937Z,38.24
2022-08-08T00:51:09.932Z,38.09
2022-08-08T00:54:19.126Z,38.20
2022-08-08T00:57:23.477Z,38.14
2022-08-08T01:00:22.437Z,38.38
2022-08-08T01:03:58.004Z,37.90
2022-08-08T01:06:37.777Z,37.97
2022-08-08T01:09:36.032Z,37.67
2022-08-08T01:12:43.452Z,38.27
2022-08-08T01:15:44.441Z,37.71
2022-08-08T01:18:52.997Z,38.03
2022-08-08T01:22:13.505Z,37.49
2022-08-08T01:24:50.902Z,37.72
2022-08-08T01:27:52.590Z,37.69
2022-08-08T01:30:41.348Z,37.87
2022-08-08T01:33:23.424Z,37.75
2022-08-08T01:36:25.670Z,38.08
2022-08-08T01:39:34.817Z,38.16
2022-08-08T01:42:41.424Z,38.51
2022-08-08T01:45:39.512Z,38.18
2022-08-08T01:48:30.512Z,38.15
2022-08-08T01:52:21.092Z,38.01
2022-08-08T01:55:45.295Z,38.37
2022-08-08T01:58:11.560Z,37.81
2022-08-08T02:01:08.998Z,37.48
2022-08-08T02:04:02.714Z,36.74
2022-08-08T02:06:55.145Z,37.45
2022-08-08T02:10:02.799Z,37.26
2022-08-08T02:12:31.493Z,37.35
2022-08-08T02:15:12.554Z,37.61
2022-08-08T02:18:04.204Z,38.24
2022-08-08T02:21:24.094Z,38.35
2022-08-08T02:24:00.364Z,37.92
2022-08-08T02:26:34.689Z,38.16
2022-08-08T02:29:41.725Z,38.43
2022-08-08T02:32:42.879Z,39.03
2022-08-08T02:36:03.301Z,39.83
2022-08-08T02:38:56.604Z,40.09
2022-08-08T02:41:58.723Z,39.80
2022-08-08T02:44:57.137Z,40.62
2022-08-08T02:47:41.650Z,40.06
2022-08-08T02:50:33.730Z,40.17
2022-08-08T02:53:24.066Z,39.75
2022-08-08T02:56:01.825Z,40.11
2022-08-08T02:59:25.827Z,40.48
2022-08-08T03:02:30.362Z,40.49
2022-08-08T03:05:32.826Z,40.65
2022-08-08T03:08:34.796Z,40.87
2022-08-08T03:11:25.610Z,40.65
2022-08-08T03:15:58.852Z,40.55
2022-08-08T03:17:39.829Z,41.22
2022-08-08T03:20:11.691Z,40.52
2022-08-08T03:22:46.419Z,40.66
2022-08-08T03:25:18.598Z,40.89
2022-08-08T03:28:23.919Z,41.44
2022-08-08T03:31:07.888Z,41.48
2022-08-08T03:33:54.770Z,41.25
2022-08-08T03:36:30.384Z,41.34
2022-08-08T03:39:07.549Z,41.88
2022-08-08T03:42:28.674Z,41.18
2022-08-08T03:44:38.392Z,41.58
2022-08-08T03:47:19.369Z,41.99
2022-08-08T03:49:57.547Z,41.73
2022-08-08T03:52:44.474Z,41.77
2022-08-08T03:55:20.129Z,42.25
2022-08-08T03:58:32.024Z,42.10
2022-08-08T04:01:24.670Z,42.03
2022-08-08T04:03:58.075Z,41.41
2022-08-08T04:06:31.174Z,41.25
2022-08-08T04:09:10.856Z,41.71
2022-08-08T04:11:48.437Z,41.26
2022-08-08T04:14:36.267Z,41.35
2022-08-08T04:17:22.601Z,41.49
2022-08-08T04:19:56.563Z,41.31
2022-08-08T04:22:29.605Z,41.79
2022-08-08T04:24:59.311Z,41.53
2022-08-08T04:28:01.614Z,41.91
2022-08-08T04:30:18.329Z,42.07
2022-08-08T04:32:50.114Z,41.65
2022-08-08T04:35:22.507Z,41.55
2022-08-08T04:37:53.480Z,41.79
2022-08-08T04:40:26.451Z,41.76
2022-08-08T04:43:01.028Z,41.69
2022-08-08T04:45:34.671Z,41.74
2022-08-08T04:48:03.740Z,41.88
2022-08-08T04:50:38.272Z,42.05
2022-08-08T04:53:14.034Z,41.80
2022-08-08T04:56:00.775Z,41.85
2022-08-08T04:58:33.089Z,41.74
2022-08-08T05:01:08.934Z,41.64
2022-08-08T05:04:10.457Z,41.89
2022-08-08T05:06:42.295Z,41.86
2022-08-08T05:09:12.125Z,41.99
2022-08-08T05:11:42.843Z,41.92
2022-08-08T05:14:15.648Z,41.81
2022-08-08T05:17:00.965Z,41.50
2022-08-08T05:20:12.463Z,41.70
2022-08-08T05:22:30.695Z,41.59
2022-08-08T05:25:00.530Z,41.17
2022-08-08T05:27:33.501Z,41.23
2022-08-08T05:30:11.275Z,40.84
2022-08-08T05:32:46.517Z,40.91
2022-08-08T05:35:18.196Z,41.48
2022-08-08T05:38:00.863Z,40.81
2022-08-08T05:40:48.968Z,41.30
2022-08-08T05:43:39.277Z,41.49
2022-08-08T05:46:15.128Z,40.99
2022-08-08T05:48:52.351Z,40.88
2022-08-08T05:51:25.818Z,41.01
2022-08-08T05:54:27.626Z,41.10
2022-08-08T05:56:47.041Z,40.69
2022-08-08T05:59:58.683Z,40.55
2022-08-08T06:02:40.729Z,41.10
2022-08-08T06:05:33.725Z,40.80
2022-08-08T06:08:09.791Z,40.87
2022-08-08T06:10:53.676Z,40.33
2022-08-08T06:13:23.503Z,40.29
2022-08-08T06:15:57.204Z,39.62
2022-08-08T06:18:36.747Z,40.15
2022-08-08T06:21:28.609Z,39.65
2022-08-08T06:24:03.672Z,39.60
2022-08-08T06:26:50.675Z,39.41
2022-08-08T06:29:56.375Z,38.85
2022-08-08T06:32:28.870Z,38.95
2022-08-08T06:36:00.532Z,39.04
2022-08-08T06:38:00.398Z,39.29
2022-08-08T06:40:36.813Z,39.11
2022-08-08T06:43:19.218Z,38.31
2022-08-08T06:45:58.323Z,38.46
2022-08-08T06:48:26.714Z,38.09
2022-08-08T06:50:57.925Z,38.08
2022-08-08T06:53:38.880Z,37.87
2022-08-08T06:56:09.328Z,37.84
2022-08-08T06:58:39.967Z,38.18
2022-08-08T07:02:16.650Z,38.04
2022-08-08T07:04:39.726Z,38.04
2022-08-08T07:07:11.613Z,37.20
2022-08-08T07:09:59.225Z,37.35
2022-08-08T07:12:40.478Z,37.19
2022-08-08T07:15:32.656Z,37.21
2022-08-08T07:18:35.879Z,36.73
2022-08-08T07:21:04.751Z,37.10
2022-08-08T07:24:03.329Z,37.21
2022-08-08T07:26:54.794Z,37.12
2022-08-08T07:30:00.115Z,36.63
2022-08-08T07:32:16.926Z,36.52
2022-08-08T07:35:00.406Z,36.46
2022-08-08T07:37:56.237Z,35.73
2022-08-08T07:40:30.099Z,36.15
2022-08-08T07:43:09.115Z,36.08
2022-08-08T07:46:05.714Z,35.76
2022-08-08T07:48:32.228Z,35.78
2022-08-08T07:51:04.516Z,35.11
2022-08-08T07:54:03.076Z,35.11
2022-08-08T07:57:10.449Z,35.10
2022-08-08T07:59:57.540Z,35.20
2022-08-08T08:02:35.491Z,35.01
2022-08-08T08:05:16.340Z,34.65
2022-08-08T08:07:54.566Z,34.33
2022-08-08T08:10:30.226Z,34.23
2022-08-08T08:13:42.812Z,34.21
2022-08-08T08:16:23.183Z,34.30
2022-08-08T08:19:03.108Z,34.32
2022-08-08T08:21:52.387Z,33.86
2022-08-08T08:24:51.732Z,33.60
2022-08-08T08:27:22.450Z,32.79
2022-08-08T08:29:54.506Z,32.85
2022-08-08T08:32:35.955Z,32.91
2022-08-08T08:35:10.918Z,32.53
2022-08-08T08:38:13.013Z,31.78
2022-08-08T08:40:37.720Z,31.30
2022-08-08T08:43:15.252Z,30.55
2022-08-08T08:45:48.548Z,30.37
2022-08-08T08:48:19.242Z,30.14
2022-08-08T08:50:52.352Z,29.62
2022-08-08T08:53:27.935Z,29.41
2022-08-08T08:56:23.704Z,29.55
2022-08-08T08:58:58.649Z,29.24
2022-08-08T09:01:36.181Z,29.26
2022-08-08T09:04:31.710Z,28.59
2022-08-08T09:07:12.175Z,28.01
2022-08-08T09:09:54.908Z,27.58
2022-08-08T09:12:29.263Z,27.43
2022-08-08T09:14:59.387Z,27.58
2022-08-08T09:17:41.600Z,27.31
2022-08-08T09:21:59.580Z,27.13
2022-08-08T09:23:11.557Z,26.90
2022-08-08T09:26:12.789Z,26.12
2022-08-08T09:28:41.159Z,26.10
2022-08-08T09:31:24.129Z,25.73
2022-08-08T09:34:30.538Z,26.23
2022-08-08T09:36:51.832Z,26.00
2022-08-08T09:39:46.978Z,24.98
2022-08-08T09:42:25.723Z,25.30
2022-08-08T09:45:15.524Z,25.67
2022-08-08T09:48:05.120Z,26.01
2022-08-08T09:50:37.402Z,25.04
2022-08-08T09:53:23.747Z,25.04
2022-08-08T09:56:06.127Z,24.52
2022-08-08T09:58:46.089Z,24.24
2022-08-08T10:02:02.163Z,24.74
2022-08-08T10:04:35.497Z,24.82
2022-08-08T10:07:07.500Z,25.12
2022-08-08T10:09:59.686Z,25.68
2022-08-08T10:12:53.768Z,25.13
2022-08-08T10:15:27.844Z,24.97
2022-08-08T10:18:10.152Z,25.30
2022-08-08T10:20:58.025Z,25.32
2022-08-08T10:23:58.748Z,25.47
2022-08-08T10:26:57.048Z,26.01
2022-08-08T10:29:58.716Z,25.31
2022-08-08T10:32:39.173Z,24.98
2022-08-08T10:36:06.555Z,25.74
2022-08-08T10:38:05.695Z,26.11
2022-08-08T10:40:39.048Z,26.38
2022-08-08T10:43:09.962Z,26.33
2022-08-08T10:45:55.527Z,25.53
2022-08-08T10:48:58.942Z,26.21
2022-08-08T10:51:31.429Z,25.31
2022-08-08T10:54:25.171Z,25.44
2022-08-08T10:57:03.821Z,25.68
2022-08-08T10:59:39.704Z,25.72
2022-08-08T11:02:09.643Z,26.49
2022-08-08T11:04:52.991Z,25.90
2022-08-08T11:08:31.707Z,26.22
2022-08-08T11:10:28.610Z,26.52
2022-08-08T11:13:28.693Z,26.77
2022-08-08T11:15:53.211Z,26.70
2022-08-08T11:18:30.625Z,27.46
2022-08-08T11:21:01.639Z,26.99
2022-08-08T11:23:42.424Z,27.64
2022-08-08T11:26:18.750Z,27.35
2022-08-08T11:28:47.777Z,28.75
2022-08-08T11:31:20.948Z,27.83
2022-08-08T11:34:02.877Z,27.50
2022-08-08T11:36:33.193Z,27.32
2022-08-08T11:39:06.227Z,27.78
2022-08-08T11:41:42.271Z,27.92
2022-08-08T11:44:11.985Z,27.85
2022-08-08T11:46:40.370Z,28.05
2022-08-08T11:49:14.676Z,28.12
2022-08-08T11:51:50.254Z,29.03
2022-08-08T11:54:38.006Z,28.24
2022-08-08T11:57:27.191Z,28.00
2022-08-08T12:00:05.854Z,27.32
2022-08-08T12:02:57.549Z,27.51
2022-08-08T12:05:37.325Z,27.43
2022-08-08T12:08:06.242Z,27.39
2022-08-08T12:10:34.089Z,27.68
2022-08-08T12:13:14.253Z,26.96
2022-08-08T12:15:51.968Z,27.47
2022-08-08T12:18:28.683Z,27.12
2022-08-08T12:20:58.810Z,27.54
2022-08-08T12:23:42.846Z,27.25
2022-08-08T12:26:28.355Z,27.80
2022-08-08T12:29:25.679Z,27.43
2022-08-08T12:32:22.471Z,27.36
2022-08-08T12:35:13.175Z,26.80
2022-08-08T12:38:02.424Z,26.94
2022-08-08T12:40:54.253Z,26.28
2022-08-08T12:43:47.674Z,25.97
2022-08-08T12:46:26.122Z,28.02
2022-08-08T12:49:24.961Z,29.04
2022-08-08T12:51:58.942Z,28.46
2022-08-08T12:54:33.258Z,28.93
2022-08-08T12:57:17.801Z,30.07
2022-08-08T13:00:06.181Z,29.70
2022-08-08T13:02:51.347Z,28.36
2022-08-08T13:05:26.458Z,29.42
2022-08-08T13:08:17.334Z,28.94
2022-08-08T13:11:00.393Z,29.79
2022-08-08T13:13:36.766Z,29.13
2022-08-08T13:16:25.151Z,30.71
2022-08-08T13:19:06.762Z,30.02
2022-08-08T13:22:05.287Z,29.59
2022-08-08T13:24:48.411Z,30.44
2022-08-08T13:27:19.455Z,31.03
2022-08-08T13:29:52.895Z,32.16
2022-08-08T13:32:23.833Z,31.80
2022-08-08T13:35:04.553Z,32.56
2022-08-08T13:38:05.626Z,33.20
2022-08-08T13:40:28.199Z,33.89
2022-08-08T13:42:57.764Z,33.46
2022-08-08T13:45:26.550Z,33.55
2022-08-08T13:48:01.423Z,33.55
2022-08-08T13:50:35.237Z,34.40
2022-08-08T13:53:24.863Z,33.27
2022-08-08T13:56:01.836Z,33.07
2022-08-08T13:58:30.447Z,32.55
2022-08-08T14:01:00.534Z,32.84
2022-08-08T14:03:52.354Z,33.75
2022-08-08T14:06:32.205Z,33.29
2022-08-08T14:09:24.258Z,33.19
2022-08-08T14:11:48.598Z,33.89
2022-08-08T14:14:20.451Z,33.45
2022-08-08T14:16:52.248Z,34.42
2022-08-08T14:19:57.303Z,33.48
2022-08-08T14:22:25.041Z,33.37
2022-08-08T14:24:58.887Z,32.73
2022-08-08T14:27:34.231Z,32.57
2022-08-08T14:30:18.176Z,32.61
2022-08-08T14:32:55.100Z,33.19
2022-08-08T14:35:35.404Z,33.57
2022-08-08T14:38:33.858Z,33.74
2022-08-08T14:40:59.060Z,32.94
2022-08-08T14:44:02.295Z,33.15
2022-08-08T14:46:31.141Z,33.65
2022-08-08T14:49:09.494Z,33.89
2022-08-08T14:51:52.306Z,34.34
2022-08-08T14:54:28.401Z,35.58
2022-08-08T14:56:57.201Z,34.66
2022-08-08T14:59:44.029Z,35.11
2022-08-08T15:02:16.190Z,35.59
2022-08-08T15:04:50.510Z,36.66
2022-08-08T15:07:22.900Z,36.16
2022-08-08T15:10:05.995Z,36.22
2022-08-08T15:12:37.322Z,36.46
2022-08-08T15:15:09.169Z,35.54
2022-08-08T15:17:48.298Z,35.65
2022-08-08T15:20:17.134Z,35.53
2022-08-08T15:22:48.611Z,35.66
2022-08-08T15:25:26.095Z,36.23
2022-08-08T15:28:04.843Z,36.65
2022-08-08T15:30:45.877Z,37.05
2022-08-08T15:33:35.147Z,36.80
2022-08-08T15:36:03.898Z,37.14
2022-08-08T15:38:31.077Z,37.30
2022-08-08T15:41:01.034Z,37.08
2022-08-08T15:43:35.879Z,37.31
2022-08-08T15:46:04.293Z,36.64
2022-08-08T15:48:31.490Z,37.25
2022-08-08T15:51:06.484Z,37.20
2022-08-08T15:53:40.631Z,36.99
2022-08-08T15:56:20.111Z,36.76
2022-08-08T15:58:49.242Z,37.55
2022-08-08T16:01:18.049Z,37.87
2022-08-08T16:03:48.088Z,39.35
2022-08-08T16:06:27.799Z,38.50
2022-08-08T16:13:00.174Z,38.86
2022-08-08T16:13:12.126Z,38.28
2022-08-08T16:14:36.549Z,39.40
2022-08-08T16:17:06.098Z,38.78
2022-08-08T16:19:57.275Z,38.03
2022-08-08T16:22:29.938Z,38.05
2022-08-08T16:24:58.220Z,37.84
2022-08-08T16:27:25.408Z,37.47
2022-08-08T16:30:08.826Z,38.60
2022-08-08T16:32:42.386Z,38.87
2022-08-08T16:35:10.057Z,38.64
2022-08-08T16:37:42.958Z,38.03
2022-08-08T16:40:17.457Z,38.29
2022-08-08T16:42:51.844Z,38.19
2022-08-08T16:46:36.966Z,40.23
2022-08-08T16:48:13.431Z,39.24
2022-08-08T16:50:42.825Z,39.60
2022-08-08T16:55:04.914Z,38.24
2022-08-08T16:56:00.517Z,37.99
2022-08-08T16:58:34.367Z,38.83
2022-08-08T17:01:05.822Z,39.46
2022-08-08T17:04:00.470Z,38.61
2022-08-08T17:06:39.511Z,38.87
2022-08-08T17:09:15.079Z,39.60
2022-08-08T17:11:52.269Z,40.05
2022-08-08T17:14:27.355Z,39.99
2022-08-08T17:17:03.747Z,40.49
2022-08-08T17:19:31.798Z,41.28
2022-08-08T17:22:06.363Z,41.53
2022-08-08T17:24:34.761Z,41.25
2022-08-08T17:27:04.802Z,41.86
2022-08-08T17:29:36.532Z,42.09
2022-08-08T17:32:11.153Z,41.13
2022-08-08T17:35:14.647Z,41.24
2022-08-08T17:37:32.662Z,41.96
2022-08-08T17:40:12.942Z,41.39
2022-08-08T17:42:47.124Z,42.00
2022-08-08T17:45:22.691Z,41.92
2022-08-08T17:47:51.605Z,41.68
2022-08-08T17:50:20.145Z,41.50
2022-08-08T17:52:48.603Z,41.69
2022-08-08T17:56:07.215Z,41.39
2022-08-08T17:58:03.977Z,41.10
2022-08-08T18:00:32.042Z,40.40
2022-08-08T18:03:08.539Z,40.65
2022-08-08T18:05:47.939Z,41.73
2022-08-08T18:08:24.484Z,41.90
2022-08-08T18:11:07.785Z,41.92
2022-08-08T18:13:41.870Z,42.00
2022-08-08T18:16:10.902Z,42.15
2022-08-08T18:18:42.681Z,42.01
2022-08-08T18:21:34.472Z,42.04
2022-08-08T18:24:04.131Z,41.98
2022-08-08T18:26:34.014Z,42.61
2022-08-08T18:29:02.453Z,42.73
2022-08-08T18:31:33.368Z,42.68
2022-08-08T18:34:24.987Z,42.73
2022-08-08T18:36:48.211Z,43.50
2022-08-08T18:39:27.824Z,43.38
2022-08-08T18:42:03.076Z,43.86
2022-08-08T18:44:35.966Z,44.37
2022-08-08T18:47:04.369Z,43.83
2022-08-08T18:49:57.343Z,45.29
2022-08-08T18:52:23.206Z,45.06
2022-08-08T18:55:00.043Z,44.56
2022-08-08T18:57:41.091Z,44.62
2022-08-08T19:00:21.394Z,45.11
2022-08-08T19:02:55.632Z,44.61
2022-08-08T19:05:37.771Z,44.22
2022-08-08T19:08:24.402Z,44.91
2022-08-08T19:11:02.278Z,44.61
2022-08-08T19:13:53.947Z,45.18
2022-08-08T19:16:28.484Z,45.15
2022-08-08T19:19:02.480Z,44.78
2022-08-08T19:21:33.328Z,45.10
2022-08-08T19:24:05.467Z,45.42
2022-08-08T19:26:37.257Z,45.77
2022-08-08T19:29:05.914Z,45.56
2022-08-08T19:31:35.380Z,45.84
2022-08-08T19:34:30.480Z,46.02
2022-08-08T19:36:58.666Z,45.93
2022-08-08T19:39:34.952Z,46.39
2022-08-08T19:42:07.139Z,46.57
2022-08-08T19:44:45.718Z,46.54
2022-08-08T19:47:16.635Z,46.97
2022-08-08T19:50:00.679Z,46.83
2022-08-08T19:52:36.971Z,46.83
2022-08-08T19:55:12.680Z,47.29
2022-08-08T19:57:45.400Z,47.07
2022-08-08T20:00:30.536Z,46.61
2022-08-08T20:03:14.657Z,46.59
2022-08-08T20:06:14.664Z,46.45
2022-08-08T20:08:37.131Z,46.21
2022-08-08T20:11:05.761Z,46.44
2022-08-08T20:14:33.449Z,46.35
2022-08-08T20:16:22.003Z,46.78
2022-08-08T20:18:57.300Z,47.17
2022-08-08T20:21:26.004Z,47.38
2022-08-08T20:23:57.453Z,47.19
2022-08-08T20:26:33.649Z,46.97
2022-08-08T20:29:03.404Z,47.09
2022-08-08T20:32:07.030Z,47.22
2022-08-08T20:34:30.139Z,47.71
2022-08-08T20:37:02.565Z,47.77
2022-08-08T20:39:39.295Z,46.91
2022-08-08T20:42:09.370Z,47.13
2022-08-08T20:44:37.621Z,47.34
2022-08-08T20:47:22.702Z,46.99
2022-08-08T20:49:54.411Z,47.42
2022-08-08T20:52:28.402Z,47.28
2022-08-08T20:54:59.613Z,47.07
2022-08-08T20:57:28.367Z,46.94
2022-08-08T20:59:56.337Z,46.84
2022-08-08T21:02:26.728Z,46.91
2022-08-08T21:05:00.970Z,47.22
2022-08-08T21:08:33.859Z,46.97
2022-08-08T21:10:20.992Z,47.17
2022-08-08T21:12:54.150Z,46.89
2022-08-08T21:16:06.000Z,46.52
2022-08-08T21:18:09.733Z,46.36
2022-08-08T21:20:39.574Z,46.94
2022-08-08T21:23:13.196Z,46.66
2022-08-08T21:25:49.188Z,46.49
2022-08-08T21:28:33.671Z,46.43
2022-08-08T21:31:22.706Z,46.62
2022-08-08T21:33:58.074Z,46.24
2022-08-08T21:36:28.956Z,46.41
2022-08-08T21:38:58.073Z,46.46
2022-08-08T21:41:29.019Z,46.64
2022-08-08T21:44:11.051Z,46.92
2022-08-08T21:48:01.533Z,46.43
2022-08-08T21:49:28.789Z,46.38
2022-08-08T21:54:33.578Z,46.25
2022-08-08T21:54:54.315Z,46.36
2022-08-08T21:57:29.655Z,46.37
2022-08-08T22:00:14.656Z,46.50
2022-08-08T22:02:44.154Z,46.65
2022-08-08T22:05:15.023Z,46.60
2022-08-08T22:07:48.342Z,46.40
2022-08-08T22:10:18.697Z,46.70
2022-08-08T22:13:18.261Z,45.99
2022-08-08T22:15:59.617Z,46.22
2022-08-08T22:18:30.220Z,46.74
2022-08-08T22:21:01.622Z,46.45
2022-08-08T22:23:40.911Z,46.52
2022-08-08T22:26:28.075Z,46.56
2022-08-08T22:29:04.311Z,46.28
2022-08-08T22:31:43.261Z,46.55
2022-08-08T22:34:15.089Z,46.46
2022-08-08T22:36:43.133Z,46.36
2022-08-08T22:39:18.981Z,46.80
2022-08-08T22:41:49.468Z,46.52
2022-08-08T22:44:17.334Z,46.19
2022-08-08T22:46:45.733Z,46.38
2022-08-08T22:49:19.881Z,46.45
2022-08-08T22:51:48.139Z,46.69
2022-08-08T22:54:30.001Z,46.62
2022-08-08T22:57:08.642Z,46.52
2022-08-08T22:59:58.746Z,46.50
2022-08-08T23:02:29.217Z,46.58
2022-08-08T23:04:57.757Z,46.53
2022-08-08T23:07:51.178Z,46.71
2022-08-08T23:10:19.494Z,46.56
2022-08-08T23:12:51.711Z,46.97
2022-08-08T23:16:41.023Z,46.51
2022-08-08T23:18:11.511Z,46.50
2022-08-08T23:20:44.358Z,46.30
2022-08-08T23:23:18.808Z,46.13
2022-08-08T23:25:49.380Z,46.08
2022-08-08T23:28:18.707Z,45.96
2022-08-08T23:30:47.926Z,45.91
2022-08-08T23:33:21.063Z,44.93
2022-08-08T23:36:08.809Z,44.51
2022-08-08T23:38:41.841Z,44.04
2022-08-08T23:41:24.753Z,44.34
2022-08-08T23:43:56.409Z,43.37
2022-08-08T23:49:03.019Z,43.79
2022-08-08T23:49:15.402Z,43.66
2022-08-08T23:52:06.214Z,43.43
2022-08-08T23:54:41.729Z,42.76
2022-08-08T23:57:27.736Z,43.01
